BAD weather

Barksdale Air Force Base
Bossier City, Louisiana, United States

Public forecast

Using degrees Fahrenheit for public forecast. Weather courtesy of forecast.io.

Current aviation weather report (METAR) for Barksdale Air Force Base

Retrieved 2020/01/23 19:36 UTC (0 seconds ago):

KBAD 231936Z 33013KT 10SM OVC007 09/09 A2994 RMK AO2A SLPNO

Aviation forecast (TAF) for Barksdale Air Force Base

Retrieved 2020/01/23 18:03 UTC (1 hour ago):

TAF KBAD 231800Z 2318/2424 32010KT 4800 -RA BR OVC004 QNH2990INS BECMG 2320/2321 32012KT 9999 NSW OVC007 QNH2990INS BECMG 2400/2401 32006KT 9999 BKN015 QNH2996INS BECMG 2404/2405 29005KT 9999 SKC QNH3000INS WND 30010KT AFT 2413 BECMG 2415/2416 30014G20KT 9999 FEW025 QNH3005INS TX11/2321Z TN02/2413Z